Time;durP1;ratioP1;P1;durP2;ratioP2;P2;SDS_P1;SDS_P2;PMS_P1;PMS_P2;Temp;Humidity;BMP_temperature;BMP_pressure;BME280_temperature;BME280_humidity;BME280_pressure;Samples;Min_cycle;Max_cycle;Signal;HPM_P1;HPM_P2
2021/06/12 00:02:07;;;;;;;;;;;17.30;90.80;;;;;;5021303;28;19976;-67
2021/06/12 00:04:32;;;;;;;;;;;17.30;90.70;;;;;;5020382;28;20290;-67
2021/06/12 00:06:58;;;;;;;;;;;17.30;90.70;;;;;;5022890;28;19913;-68
2021/06/12 00:09:27;;;;;;;;;;;17.20;90.70;;;;;;5020955;28;19925;-66
2021/06/12 00:11:53;;;;;;;;;;;17.00;91.00;;;;;;5022082;28;19965;-66
2021/06/12 00:14:18;;;;;;;;;;;17.00;91.00;;;;;;5035590;28;19914;-67
2021/06/12 00:16:44;;;;;;;;;;;17.00;90.90;;;;;;5020851;28;20337;-67
2021/06/12 00:19:10;;;;;;;;;;;17.00;91.40;;;;;;5021983;28;19944;-67
2021/06/12 00:21:36;;;;;;;;;;;16.90;91.50;;;;;;5022276;28;20378;-68
2021/06/12 00:24:03;;;;;;;;;;;16.80;91.20;;;;;;5019598;28;20446;-67
2021/06/12 00:26:28;;;;;;;;;;;16.80;91.70;;;;;;5019177;28;20003;-67
2021/06/12 00:28:54;;;;;;;;;;;16.80;91.60;;;;;;5020143;28;20036;-68
2021/06/12 00:31:19;;;;;;;;;;;16.90;91.90;;;;;;5021919;28;20305;-67
2021/06/12 00:33:45;;;;;;;;;;;16.90;92.00;;;;;;5018930;28;19956;-68
2021/06/12 00:36:10;;;;;;;;;;;16.90;92.00;;;;;;5021883;28;19917;-67
2021/06/12 00:38:36;;;;;;;;;;;16.90;92.00;;;;;;5020377;28;19933;-67
2021/06/12 00:41:01;;;;;;;;;;;16.80;92.20;;;;;;5021002;28;20579;-68
2021/06/12 00:43:27;;;;;;;;;;;16.80;92.10;;;;;;5021211;28;19940;-67
2021/06/12 00:45:52;;;;;;;;;;;16.70;91.90;;;;;;5021299;28;20300;-67
2021/06/12 00:48:19;;;;;;;;;;;16.70;92.30;;;;;;5019857;28;19917;-68
2021/06/12 00:50:44;;;;;;;;;;;16.70;92.10;;;;;;5018517;28;19936;-69
2021/06/12 00:53:09;;;;;;;;;;;16.70;92.30;;;;;;5021503;28;19909;-67
2021/06/12 00:55:36;;;;;;;;;;;16.60;92.50;;;;;;5020329;28;19917;-68
2021/06/12 00:58:02;;;;;;;;;;;16.60;92.30;;;;;;5020641;28;19961;-67
2021/06/12 01:00:27;;;;;;;;;;;16.60;92.40;;;;;;5019104;28;20049;-68
2021/06/12 01:02:53;;;;;;;;;;;16.60;92.60;;;;;;5020420;28;19987;-67
2021/06/12 01:05:21;;;;;;;;;;;16.50;92.70;;;;;;5019705;28;19917;-67
2021/06/12 01:07:46;;;;;;;;;;;16.50;93.00;;;;;;5029548;28;19981;-68
2021/06/12 01:10:13;;;;;;;;;;;16.50;93.20;;;;;;5021044;28;20054;-67
2021/06/12 01:12:42;;;;;;;;;;;16.40;93.20;;;;;;5011604;28;20261;-67
2021/06/12 01:15:09;;;;;;;;;;;16.40;93.50;;;;;;5014996;28;19948;-68
2021/06/12 01:17:37;;;;;;;;;;;16.40;93.50;;;;;;5011556;28;19921;-68
2021/06/12 01:20:06;;;;;;;;;;;16.50;93.20;;;;;;5008563;28;19940;-69
2021/06/12 01:22:37;;;;;;;;;;;16.50;93.10;;;;;;5018451;28;19920;-68
2021/06/12 01:25:03;;;;;;;;;;;16.50;93.00;;;;;;5015022;28;19972;-67
2021/06/12 01:27:47;;;;;;;;;;;16.50;93.10;;;;;;5016744;28;19913;-68
2021/06/12 01:30:16;;;;;;;;;;;16.60;92.90;;;;;;5021667;28;20020;-68
2021/06/12 01:32:52;;;;;;;;;;;16.60;93.20;;;;;;5014861;28;19917;-69
2021/06/12 01:35:21;;;;;;;;;;;16.60;93.10;;;;;;5021314;28;20386;-68
2021/06/12 01:37:47;;;;;;;;;;;16.50;93.00;;;;;;5010415;28;19970;-69
2021/06/12 01:40:13;;;;;;;;;;;16.60;93.00;;;;;;5013014;28;20016;-67
2021/06/12 01:42:41;;;;;;;;;;;16.50;93.30;;;;;;5020173;28;20003;-69
2021/06/12 01:45:07;;;;;;;;;;;16.50;93.50;;;;;;5017940;28;19963;-68
2021/06/12 01:47:32;;;;;;;;;;;16.50;93.60;;;;;;5011099;28;19925;-69
2021/06/12 01:49:58;;;;;;;;;;;16.40;93.80;;;;;;5013334;28;19913;-68
2021/06/12 01:52:24;;;;;;;;;;;16.40;93.90;;;;;;5018685;28;19917;-69
2021/06/12 01:54:51;;;;;;;;;;;16.40;94.00;;;;;;5014162;28;19943;-69
2021/06/12 01:57:17;;;;;;;;;;;16.50;94.00;;;;;;5021593;28;20360;-68
2021/06/12 01:59:42;;;;;;;;;;;16.50;94.00;;;;;;5038240;28;19973;-68
2021/06/12 02:02:08;;;;;;;;;;;16.50;94.10;;;;;;5025001;28;19923;-68
2021/06/12 02:04:38;;;;;;;;;;;16.40;94.10;;;;;;5020318;28;19975;-68
2021/06/12 02:07:05;;;;;;;;;;;16.40;94.20;;;;;;5015096;28;19932;-68
2021/06/12 02:09:31;;;;;;;;;;;16.40;94.30;;;;;;5018874;28;19913;-67
2021/06/12 02:11:57;;;;;;;;;;;16.40;94.40;;;;;;5015450;28;19917;-67
2021/06/12 02:14:23;;;;;;;;;;;16.40;94.40;;;;;;5013012;28;20287;-69
2021/06/12 02:16:49;;;;;;;;;;;16.40;94.40;;;;;;5024953;28;19920;-68
2021/06/12 02:19:16;;;;;;;;;;;16.40;94.50;;;;;;5023149;28;20360;-69
2021/06/12 02:21:41;;;;;;;;;;;16.30;94.50;;;;;;5022893;28;20025;-68
2021/06/12 02:24:08;;;;;;;;;;;16.30;94.70;;;;;;5016129;28;20397;-68
2021/06/12 02:26:36;;;;;;;;;;;16.40;94.70;;;;;;5011657;28;19929;-69
2021/06/12 02:29:02;;;;;;;;;;;16.40;94.50;;;;;;5019059;28;20317;-70
2021/06/12 02:31:30;;;;;;;;;;;16.40;94.60;;;;;;5026299;28;19960;-70
2021/06/12 02:33:56;;;;;;;;;;;16.40;94.80;;;;;;5021372;28;19968;-69
2021/06/12 02:36:21;;;;;;;;;;;16.40;94.80;;;;;;5019477;28;19920;-69
2021/06/12 02:38:46;;;;;;;;;;;16.30;94.80;;;;;;5016745;28;19924;-69
2021/06/12 02:41:12;;;;;;;;;;;16.30;94.90;;;;;;5024226;28;19999;-69
2021/06/12 02:43:38;;;;;;;;;;;16.30;95.00;;;;;;5008961;28;19918;-68
2021/06/12 02:46:04;;;;;;;;;;;16.40;94.90;;;;;;5013772;28;20270;-70
2021/06/12 02:48:31;;;;;;;;;;;16.40;95.00;;;;;;5010566;28;19929;-69
2021/06/12 02:50:58;;;;;;;;;;;16.50;94.90;;;;;;5020239;28;20007;-69
2021/06/12 02:53:26;;;;;;;;;;;16.50;95.00;;;;;;5023721;28;19917;-68
2021/06/12 02:55:53;;;;;;;;;;;16.50;95.00;;;;;;5012828;28;19921;-70
2021/06/12 02:58:20;;;;;;;;;;;16.50;95.00;;;;;;5008981;28;19983;-70
2021/06/12 03:00:47;;;;;;;;;;;16.50;95.00;;;;;;5021720;28;20051;-69
2021/06/12 03:03:13;;;;;;;;;;;16.50;95.10;;;;;;5025071;28;19949;-70
2021/06/12 03:05:41;;;;;;;;;;;16.50;95.10;;;;;;5019331;28;19974;-69
2021/06/12 03:08:07;;;;;;;;;;;16.60;94.90;;;;;;5022921;28;20341;-68
2021/06/12 03:10:33;;;;;;;;;;;16.60;94.90;;;;;;5020466;28;19975;-69
2021/06/12 03:13:01;;;;;;;;;;;16.70;94.90;;;;;;5017105;28;19993;-69
2021/06/12 03:15:28;;;;;;;;;;;16.70;95.00;;;;;;5017259;28;19921;-70
2021/06/12 03:17:54;;;;;;;;;;;16.60;94.90;;;;;;5011276;28;20078;-70
2021/06/12 03:20:20;;;;;;;;;;;16.60;95.20;;;;;;5020900;28;20455;-69
2021/06/12 03:22:48;;;;;;;;;;;16.60;95.20;;;;;;5017606;28;19947;-69
2021/06/12 03:25:14;;;;;;;;;;;16.70;95.50;;;;;;5023968;28;20050;-68
2021/06/12 03:27:40;;;;;;;;;;;16.70;95.60;;;;;;5021966;28;20289;-69
2021/06/12 03:30:06;;;;;;;;;;;16.80;95.50;;;;;;5018021;28;19913;-69
2021/06/12 03:32:32;;;;;;;;;;;16.80;95.70;;;;;;5011489;28;19928;-71
2021/06/12 03:34:58;;;;;;;;;;;16.80;95.60;;;;;;5012846;28;19918;-71
2021/06/12 03:37:24;;;;;;;;;;;16.90;95.70;;;;;;5017868;28;20091;-67
2021/06/12 03:39:50;;;;;;;;;;;16.90;95.50;;;;;;5034376;28;19925;-69
2021/06/12 03:42:16;;;;;;;;;;;16.90;95.20;;;;;;5024391;28;19913;-70
2021/06/12 03:44:44;;;;;;;;;;;16.90;95.40;;;;;;5018272;28;20017;-69
2021/06/12 03:47:10;;;;;;;;;;;16.90;95.30;;;;;;5017738;28;19928;-71
2021/06/12 03:49:36;;;;;;;;;;;16.90;95.40;;;;;;5019770;28;19939;-69
2021/06/12 03:52:01;;;;;;;;;;;17.00;95.40;;;;;;5021519;28;19952;-68
2021/06/12 03:54:27;;;;;;;;;;;17.00;95.10;;;;;;5019059;28;19932;-72
2021/06/12 03:56:53;;;;;;;;;;;17.00;95.10;;;;;;5016934;28;19918;-69
2021/06/12 03:59:18;;;;;;;;;;;17.00;95.10;;;;;;5021323;28;19913;-68
2021/06/12 04:01:44;;;;;;;;;;;17.00;95.00;;;;;;5023427;28;20000;-69
2021/06/12 04:04:09;;;;;;;;;;;17.00;95.10;;;;;;5022415;28;19978;-68
2021/06/12 04:06:35;;;;;;;;;;;17.00;95.00;;;;;;5032109;28;19913;-69
2021/06/12 04:09:00;;;;;;;;;;;17.10;94.90;;;;;;5018176;28;20147;-68
2021/06/12 04:11:26;;;;;;;;;;;17.00;94.70;;;;;;5028578;28;19986;-70
2021/06/12 04:13:51;;;;;;;;;;;17.00;95.00;;;;;;5020090;28;19956;-68
2021/06/12 04:16:16;;;;;;;;;;;17.10;94.80;;;;;;5011493;28;19918;-69
2021/06/12 04:18:42;;;;;;;;;;;17.10;94.70;;;;;;5017794;28;20012;-70
2021/06/12 04:21:08;;;;;;;;;;;17.00;94.70;;;;;;5020708;28;19925;-69
2021/06/12 04:23:33;;;;;;;;;;;17.10;94.90;;;;;;5011851;28;19944;-68
2021/06/12 04:25:59;;;;;;;;;;;17.10;94.60;;;;;;5004280;28;19975;-68
2021/06/12 04:28:24;;;;;;;;;;;17.10;94.70;;;;;;5021813;28;19920;-70
2021/06/12 04:30:50;;;;;;;;;;;17.20;94.70;;;;;;5014129;28;20364;-68
2021/06/12 04:33:16;;;;;;;;;;;17.20;94.50;;;;;;5008984;28;20027;-70
2021/06/12 04:35:41;;;;;;;;;;;17.10;94.60;;;;;;5012215;28;19927;-70
2021/06/12 04:38:07;;;;;;;;;;;17.20;94.60;;;;;;5005917;28;19956;-69
2021/06/12 04:40:33;;;;;;;;;;;17.20;94.30;;;;;;5020948;28;19921;-68
2021/06/12 04:42:59;;;;;;;;;;;17.20;94.50;;;;;;5019185;28;19936;-68
2021/06/12 04:45:25;;;;;;;;;;;17.20;94.60;;;;;;5035795;28;21710;-69
2021/06/12 04:47:51;;;;;;;;;;;17.20;94.40;;;;;;5018037;28;20195;-71
2021/06/12 04:50:17;;;;;;;;;;;17.20;94.50;;;;;;5040240;28;19913;-71
2021/06/12 04:52:42;;;;;;;;;;;17.30;94.50;;;;;;5020718;28;20319;-68
2021/06/12 04:55:09;;;;;;;;;;;17.20;94.30;;;;;;5014863;28;20277;-70
2021/06/12 04:57:34;;;;;;;;;;;17.20;94.30;;;;;;5020953;28;19917;-70
2021/06/12 05:00:00;;;;;;;;;;;17.20;94.30;;;;;;5015322;28;20360;-68
2021/06/12 05:02:26;;;;;;;;;;;17.20;94.20;;;;;;5005767;28;20382;-68
2021/06/12 05:04:51;;;;;;;;;;;17.20;94.20;;;;;;5014532;28;19918;-65
2021/06/12 05:07:17;;;;;;;;;;;17.30;94.00;;;;;;5019537;28;20376;-66
2021/06/12 05:09:42;;;;;;;;;;;17.40;93.80;;;;;;5017160;28;19921;-65
2021/06/12 05:12:08;;;;;;;;;;;17.40;93.70;;;;;;5020086;28;19932;-66
2021/06/12 05:14:34;;;;;;;;;;;17.40;93.50;;;;;;5019360;28;19981;-66
2021/06/12 05:17:02;;;;;;;;;;;17.40;93.40;;;;;;5019971;28;19917;-66
2021/06/12 05:19:28;;;;;;;;;;;17.40;93.20;;;;;;5017475;28;19989;-66
2021/06/12 05:21:53;;;;;;;;;;;17.40;93.20;;;;;;5006321;28;19936;-66
2021/06/12 05:24:19;;;;;;;;;;;17.40;93.20;;;;;;5019723;28;20012;-65
2021/06/12 05:26:45;;;;;;;;;;;17.40;93.30;;;;;;5022519;28;20295;-66
2021/06/12 05:29:10;;;;;;;;;;;17.40;93.30;;;;;;5022437;28;20412;-66
2021/06/12 05:31:36;;;;;;;;;;;17.40;93.10;;;;;;5023451;28;19936;-66
2021/06/12 05:34:01;;;;;;;;;;;17.30;93.20;;;;;;5021919;28;19918;-66
2021/06/12 05:36:27;;;;;;;;;;;17.30;92.80;;;;;;5014640;28;19913;-66
2021/06/12 05:38:52;;;;;;;;;;;17.40;93.00;;;;;;5020497;28;19918;-67
2021/06/12 05:41:18;;;;;;;;;;;17.50;92.80;;;;;;5009817;28;20298;-66
2021/06/12 05:43:43;;;;;;;;;;;17.40;92.80;;;;;;5020187;28;19974;-67
2021/06/12 05:46:09;;;;;;;;;;;17.40;92.70;;;;;;5015518;28;19917;-65
2021/06/12 05:48:34;;;;;;;;;;;17.40;92.80;;;;;;5024696;28;19913;-66
2021/06/12 05:51:00;;;;;;;;;;;17.50;92.60;;;;;;5026580;28;19981;-67
2021/06/12 05:53:26;;;;;;;;;;;17.60;92.50;;;;;;5019728;28;20427;-65
2021/06/12 05:55:51;;;;;;;;;;;17.60;92.00;;;;;;5016428;28;19960;-65
2021/06/12 05:58:17;;;;;;;;;;;17.60;91.70;;;;;;5012178;28;19929;-66
2021/06/12 06:00:43;;;;;;;;;;;17.70;91.40;;;;;;5017261;28;20012;-65
2021/06/12 06:03:08;;;;;;;;;;;17.70;91.30;;;;;;5023426;28;19917;-66
2021/06/12 06:05:33;;;;;;;;;;;17.70;91.20;;;;;;5011654;28;20115;-65
2021/06/12 06:07:59;;;;;;;;;;;17.80;91.20;;;;;;5023628;28;19940;-65
2021/06/12 06:10:24;;;;;;;;;;;18.00;90.80;;;;;;5024922;28;20365;-65
2021/06/12 06:12:50;;;;;;;;;;;17.90;90.40;;;;;;5022395;28;20020;-66
2021/06/12 06:15:16;;;;;;;;;;;17.90;90.00;;;;;;5020026;28;19913;-67
2021/06/12 06:17:42;;;;;;;;;;;17.80;90.00;;;;;;5017515;28;20299;-66
2021/06/12 06:20:08;;;;;;;;;;;18.00;89.70;;;;;;5025143;28;19920;-65
2021/06/12 06:22:33;;;;;;;;;;;18.00;89.70;;;;;;5019193;28;19917;-65
2021/06/12 06:24:59;;;;;;;;;;;18.00;89.50;;;;;;5019916;28;19982;-65
2021/06/12 06:27:25;;;;;;;;;;;18.00;89.40;;;;;;5020323;28;19967;-65
2021/06/12 06:29:50;;;;;;;;;;;18.10;89.20;;;;;;5024733;28;20019;-66
2021/06/12 06:32:16;;;;;;;;;;;18.10;89.10;;;;;;5026260;28;19960;-67
2021/06/12 06:34:41;;;;;;;;;;;18.30;89.00;;;;;;5019526;28;19948;-67
2021/06/12 06:37:07;;;;;;;;;;;18.10;88.70;;;;;;5018326;28;19913;-66
2021/06/12 06:39:33;;;;;;;;;;;18.10;89.30;;;;;;5017894;28;19917;-66
2021/06/12 06:41:58;;;;;;;;;;;18.10;89.10;;;;;;5006470;28;19909;-66
2021/06/12 06:44:24;;;;;;;;;;;18.30;88.90;;;;;;5027260;28;19958;-67
2021/06/12 06:46:49;;;;;;;;;;;18.30;88.40;;;;;;5023568;28;19972;-66
2021/06/12 06:49:15;;;;;;;;;;;18.50;88.10;;;;;;5025488;28;20300;-68
2021/06/12 06:51:40;;;;;;;;;;;18.50;87.40;;;;;;5023728;28;20636;-66
2021/06/12 06:54:06;;;;;;;;;;;18.70;87.10;;;;;;5020847;28;19966;-66
2021/06/12 06:56:31;;;;;;;;;;;18.80;86.80;;;;;;5021839;28;19917;-66
2021/06/12 06:58:57;;;;;;;;;;;18.70;86.70;;;;;;5021491;28;20012;-66
2021/06/12 07:01:22;;;;;;;;;;;18.60;86.60;;;;;;5016041;28;19987;-67
2021/06/12 07:03:48;;;;;;;;;;;18.50;87.10;;;;;;5019765;28;20380;-66
2021/06/12 07:06:13;;;;;;;;;;;18.50;87.60;;;;;;5022521;28;20378;-66
2021/06/12 07:08:39;;;;;;;;;;;18.50;87.80;;;;;;5021996;28;19928;-65
2021/06/12 07:11:04;;;;;;;;;;;18.50;87.70;;;;;;5022262;28;19914;-67
2021/06/12 07:13:30;;;;;;;;;;;18.40;87.30;;;;;;5019864;28;19980;-66
2021/06/12 07:15:56;;;;;;;;;;;18.40;86.90;;;;;;5017962;28;20000;-66
2021/06/12 07:18:21;;;;;;;;;;;18.30;87.00;;;;;;5016015;28;20121;-65
2021/06/12 07:20:47;;;;;;;;;;;18.40;87.30;;;;;;5015708;28;19940;-66
2021/06/12 07:23:15;;;;;;;;;;;18.40;87.20;;;;;;5019354;28;19921;-66
2021/06/12 07:25:40;;;;;;;;;;;18.40;86.60;;;;;;5017315;28;19954;-66
2021/06/12 07:28:06;;;;;;;;;;;18.50;86.70;;;;;;5022344;28;19917;-67
2021/06/12 07:30:38;;;;;;;;;;;18.40;86.20;;;;;;5017681;28;20373;-68
2021/06/12 07:33:04;;;;;;;;;;;18.30;87.00;;;;;;5014765;28;19962;-68
2021/06/12 07:35:29;;;;;;;;;;;18.30;87.30;;;;;;5020758;28;19964;-68
2021/06/12 07:37:55;;;;;;;;;;;18.20;87.30;;;;;;5008847;28;19929;-66
2021/06/12 07:40:20;;;;;;;;;;;18.20;88.10;;;;;;5009503;28;20024;-68
2021/06/12 07:42:46;;;;;;;;;;;18.10;88.70;;;;;;5020486;28;19913;-68
2021/06/12 07:45:11;;;;;;;;;;;18.00;88.50;;;;;;5020828;28;20024;-68
2021/06/12 07:47:37;;;;;;;;;;;18.00;88.60;;;;;;5022211;28;20023;-67
2021/06/12 07:50:03;;;;;;;;;;;18.10;89.00;;;;;;5019385;28;20293;-69
2021/06/12 07:52:28;;;;;;;;;;;18.10;88.10;;;;;;5007643;28;19948;-68
2021/06/12 07:54:54;;;;;;;;;;;18.10;87.30;;;;;;5012271;28;19917;-68
2021/06/12 07:57:19;;;;;;;;;;;18.30;86.60;;;;;;5016366;28;19985;-68
2021/06/12 07:59:45;;;;;;;;;;;18.30;86.20;;;;;;5018907;28;20007;-67
2021/06/12 08:02:10;;;;;;;;;;;18.40;86.00;;;;;;5007233;28;19956;-68
2021/06/12 08:04:36;;;;;;;;;;;18.40;85.90;;;;;;5009303;28;19936;-69
2021/06/12 08:07:01;;;;;;;;;;;18.50;85.70;;;;;;5013071;28;19917;-69
2021/06/12 08:09:27;;;;;;;;;;;18.50;85.30;;;;;;5021009;28;19925;-68
2021/06/12 08:11:52;;;;;;;;;;;18.30;85.10;;;;;;5005961;28;20257;-68
2021/06/12 08:14:18;;;;;;;;;;;18.20;85.60;;;;;;5006712;28;19997;-69
2021/06/12 08:16:43;;;;;;;;;;;18.10;86.60;;;;;;5019090;28;20408;-68
2021/06/12 08:19:09;;;;;;;;;;;18.10;87.10;;;;;;5022133;28;19913;-68
2021/06/12 08:21:35;;;;;;;;;;;18.10;85.70;;;;;;5005775;28;19945;-68
2021/06/12 08:24:00;;;;;;;;;;;18.20;85.50;;;;;;5015383;28;19975;-69
2021/06/12 08:26:26;;;;;;;;;;;18.20;86.00;;;;;;5017671;28;19989;-69
2021/06/12 08:28:53;;;;;;;;;;;18.30;85.30;;;;;;5021648;28;20361;-68
2021/06/12 08:31:19;;;;;;;;;;;18.30;84.90;;;;;;5014597;28;20058;-68
2021/06/12 08:33:45;;;;;;;;;;;18.40;84.30;;;;;;5011551;28;20020;-69
2021/06/12 08:36:10;;;;;;;;;;;18.60;84.40;;;;;;5013507;28;20015;-68
2021/06/12 08:38:36;;;;;;;;;;;19.00;83.10;;;;;;5003633;28;20012;-68
2021/06/12 08:41:01;;;;;;;;;;;19.40;82.10;;;;;;5006687;28;19944;-69
2021/06/12 08:43:27;;;;;;;;;;;19.50;80.30;;;;;;5005734;28;20075;-68
2021/06/12 08:45:54;;;;;;;;;;;20.00;80.60;;;;;;5007105;28;19973;-69
2021/06/12 08:48:19;;;;;;;;;;;19.80;80.10;;;;;;5011009;28;19914;-68
2021/06/12 08:50:45;;;;;;;;;;;19.50;81.00;;;;;;5016199;28;20079;-69
2021/06/12 08:53:11;;;;;;;;;;;19.10;82.30;;;;;;5021802;28;19920;-69
2021/06/12 08:55:36;;;;;;;;;;;18.80;83.30;;;;;;5019194;28;19944;-69
2021/06/12 08:58:02;;;;;;;;;;;18.30;80.20;;;;;;5020142;28;19917;-69
2021/06/12 09:00:27;;;;;;;;;;;18.10;79.60;;;;;;5007607;28;19914;-68
2021/06/12 09:03:09;;;;;;;;;;;18.00;80.40;;;;;;5010993;28;20390;-69
2021/06/12 09:05:37;;;;;;;;;;;17.90;81.40;;;;;;5009820;28;19929;-68
2021/06/12 09:08:06;;;;;;;;;;;18.00;80.60;;;;;;5006692;28;19994;-68
2021/06/12 09:10:32;;;;;;;;;;;18.10;79.80;;;;;;5017339;28;20362;-69
2021/06/12 09:12:58;;;;;;;;;;;18.00;78.00;;;;;;5003835;28;20168;-68
2021/06/12 09:15:23;;;;;;;;;;;18.20;77.60;;;;;;5016034;28;19917;-70
2021/06/12 09:17:50;;;;;;;;;;;18.50;76.40;;;;;;5027889;28;19922;-68
2021/06/12 09:20:17;;;;;;;;;;;18.40;75.10;;;;;;5009781;28;19925;-70
2021/06/12 09:22:42;;;;;;;;;;;18.60;73.10;;;;;;5010880;28;19917;-67
2021/06/12 09:25:08;;;;;;;;;;;19.00;72.40;;;;;;5021635;28;19928;-70
2021/06/12 09:27:34;;;;;;;;;;;19.30;71.20;;;;;;5011836;28;19965;-69
2021/06/12 09:30:00;;;;;;;;;;;19.30;69.80;;;;;;5002962;28;20376;-69
2021/06/12 09:32:28;;;;;;;;;;;19.40;68.60;;;;;;5005017;28;20012;-69
2021/06/12 09:35:03;;;;;;;;;;;19.90;68.50;;;;;;5003461;28;19913;-69
2021/06/12 09:37:28;;;;;;;;;;;20.00;68.30;;;;;;5016650;28;20015;-69
2021/06/12 09:40:06;;;;;;;;;;;19.70;67.40;;;;;;5021740;28;20050;-70
2021/06/12 09:42:51;;;;;;;;;;;19.80;68.60;;;;;;5015599;28;20384;-69
2021/06/12 09:45:26;;;;;;;;;;;19.50;67.20;;;;;;5013803;28;20242;-69
2021/06/12 09:48:06;;;;;;;;;;;19.60;67.70;;;;;;5013014;28;19917;-70
2021/06/12 09:50:31;;;;;;;;;;;19.40;67.30;;;;;;5027666;28;19921;-69
2021/06/12 09:52:57;;;;;;;;;;;19.80;68.20;;;;;;5008224;28;20281;-69
2021/06/12 09:55:24;;;;;;;;;;;20.00;68.40;;;;;;5019405;28;19967;-69
2021/06/12 09:57:50;;;;;;;;;;;20.00;69.00;;;;;;5020345;28;19924;-70
2021/06/12 10:00:16;;;;;;;;;;;20.40;68.50;;;;;;5022194;28;20165;-69
2021/06/12 10:02:45;;;;;;;;;;;20.00;68.10;;;;;;5015793;28;20004;-70
2021/06/12 10:05:13;;;;;;;;;;;19.60;66.50;;;;;;5016080;28;20254;-69
2021/06/12 10:07:39;;;;;;;;;;;19.30;67.30;;;;;;5018074;28;19964;-70
2021/06/12 10:10:08;;;;;;;;;;;19.50;67.00;;;;;;5016699;28;19913;-69
2021/06/12 10:12:34;;;;;;;;;;;19.40;67.80;;;;;;5018467;28;19917;-69
2021/06/12 10:15:00;;;;;;;;;;;19.70;65.90;;;;;;5014816;28;20262;-69
2021/06/12 10:17:27;;;;;;;;;;;19.70;63.30;;;;;;5022758;28;19913;-69
2021/06/12 10:19:53;;;;;;;;;;;20.20;60.00;;;;;;5017240;28;20024;-69
2021/06/12 10:22:19;;;;;;;;;;;20.30;59.10;;;;;;5017555;28;20023;-69
2021/06/12 10:24:45;;;;;;;;;;;20.10;58.70;;;;;;5013179;28;19968;-68
2021/06/12 10:27:11;;;;;;;;;;;20.30;59.40;;;;;;5020239;28;20467;-69
2021/06/12 10:29:37;;;;;;;;;;;20.70;58.20;;;;;;5019305;28;20021;-69
2021/06/12 10:32:03;;;;;;;;;;;20.60;57.40;;;;;;5018249;28;20007;-69
2021/06/12 10:34:29;;;;;;;;;;;20.40;57.40;;;;;;5022423;28;19913;-69
2021/06/12 10:36:59;;;;;;;;;;;20.00;57.20;;;;;;5023831;28;19913;-69
2021/06/12 10:39:28;;;;;;;;;;;20.20;57.00;;;;;;5038698;28;20281;-70
2021/06/12 10:42:09;;;;;;;;;;;20.60;58.80;;;;;;5020990;28;19924;-69
2021/06/12 10:44:35;;;;;;;;;;;20.30;57.60;;;;;;5021502;28;19952;-70
2021/06/12 10:47:01;;;;;;;;;;;20.20;56.80;;;;;;5012025;28;19914;-69
2021/06/12 10:49:27;;;;;;;;;;;20.50;53.70;;;;;;5015392;28;19935;-69
2021/06/12 10:51:53;;;;;;;;;;;20.60;51.60;;;;;;5021329;28;19984;-69
2021/06/12 10:54:20;;;;;;;;;;;21.70;49.40;;;;;;5024495;28;20048;-69
2021/06/12 10:56:47;;;;;;;;;;;21.40;48.70;;;;;;5021830;28;20425;-68
2021/06/12 10:59:13;;;;;;;;;;;20.60;51.80;;;;;;5023848;28;19966;-69
2021/06/12 11:01:58;;;;;;;;;;;20.20;52.30;;;;;;5023680;28;20936;-68
2021/06/12 11:04:48;;;;;;;;;;;19.90;53.30;;;;;;5014943;28;20012;-69
2021/06/12 11:07:25;;;;;;;;;;;19.80;54.50;;;;;;5011034;28;20331;-69
2021/06/12 11:09:50;;;;;;;;;;;20.00;54.40;;;;;;5029378;28;19921;-69
2021/06/12 11:12:16;;;;;;;;;;;19.40;55.10;;;;;;5019576;28;20367;-69
2021/06/12 11:14:54;;;;;;;;;;;19.30;56.50;;;;;;5014237;28;19965;-69
2021/06/12 11:17:19;;;;;;;;;;;19.00;56.20;;;;;;5014927;28;20012;-70
2021/06/12 11:19:45;;;;;;;;;;;19.30;57.00;;;;;;5017856;28;20005;-69
2021/06/12 11:22:29;;;;;;;;;;;19.20;56.20;;;;;;5014725;28;19954;-69
2021/06/12 11:24:57;;;;;;;;;;;19.60;54.90;;;;;;5021391;28;20339;-69
2021/06/12 11:27:28;;;;;;;;;;;20.00;54.20;;;;;;5018440;28;19927;-69
2021/06/12 11:30:12;;;;;;;;;;;19.70;54.60;;;;;;5014947;28;21041;-68
2021/06/12 11:32:38;;;;;;;;;;;20.20;54.70;;;;;;5022414;28;20032;-69
2021/06/12 11:35:05;;;;;;;;;;;21.00;53.40;;;;;;5008513;28;19918;-69
2021/06/12 11:37:30;;;;;;;;;;;20.80;52.00;;;;;;5018721;28;20251;-69
2021/06/12 11:39:57;;;;;;;;;;;20.50;53.60;;;;;;5023219;28;19936;-69
2021/06/12 11:42:43;;;;;;;;;;;20.20;54.20;;;;;;5023031;28;20390;-69
2021/06/12 11:45:20;;;;;;;;;;;19.80;55.60;;;;;;5010007;28;20024;-69
2021/06/12 11:47:46;;;;;;;;;;;19.50;57.70;;;;;;5025376;28;19975;-69
2021/06/12 11:50:12;;;;;;;;;;;19.40;58.20;;;;;;5017289;28;19922;-69
2021/06/12 11:52:38;;;;;;;;;;;19.80;57.20;;;;;;5019910;28;20258;-70
2021/06/12 11:55:11;;;;;;;;;;;20.50;57.00;;;;;;5023442;28;20068;-69
2021/06/12 11:57:43;;;;;;;;;;;20.30;54.80;;;;;;5021560;28;19924;-68
2021/06/12 12:00:29;;;;;;;;;;;20.30;56.50;;;;;;5019183;28;19983;-69
2021/06/12 12:03:06;;;;;;;;;;;20.00;55.10;;;;;;5001058;28;20361;-68
2021/06/12 12:05:34;;;;;;;;;;;20.00;55.20;;;;;;5021381;28;19932;-69
2021/06/12 12:08:01;;;;;;;;;;;20.10;55.60;;;;;;5019072;28;20106;-69
2021/06/12 12:10:27;;;;;;;;;;;19.80;57.00;;;;;;5020517;28;19933;-71
2021/06/12 12:12:53;;;;;;;;;;;20.10;55.80;;;;;;5019857;28;19952;-70
2021/06/12 12:15:33;;;;;;;;;;;19.80;57.50;;;;;;5021197;28;19967;-69
2021/06/12 12:18:06;;;;;;;;;;;19.60;58.00;;;;;;5033644;28;19997;-69
2021/06/12 12:20:36;;;;;;;;;;;19.00;58.70;;;;;;5020019;28;19917;-69
2021/06/12 12:23:02;;;;;;;;;;;18.90;59.10;;;;;;5020777;28;19944;-70
2021/06/12 12:25:28;;;;;;;;;;;19.30;58.80;;;;;;5019735;28;19928;-69
2021/06/12 12:28:01;;;;;;;;;;;20.20;57.70;;;;;;5022341;28;20008;-69
2021/06/12 12:30:27;;;;;;;;;;;20.90;54.90;;;;;;5020705;28;20319;-69
2021/06/12 12:32:53;;;;;;;;;;;21.10;52.90;;;;;;5021448;28;20024;-70
2021/06/12 12:35:18;;;;;;;;;;;21.40;52.20;;;;;;5021456;28;20293;-69
2021/06/12 12:37:44;;;;;;;;;;;21.00;53.50;;;;;;5017783;28;20035;-69
2021/06/12 12:40:19;;;;;;;;;;;20.50;55.20;;;;;;5021485;28;20374;-69
2021/06/12 12:42:45;;;;;;;;;;;20.70;54.20;;;;;;5019042;28;19924;-68
2021/06/12 12:45:20;;;;;;;;;;;20.80;52.50;;;;;;5022138;28;20294;-71
2021/06/12 12:47:46;;;;;;;;;;;21.10;51.80;;;;;;5021278;28;19952;-70
2021/06/12 12:50:11;;;;;;;;;;;21.00;52.80;;;;;;5022889;28;19994;-70
2021/06/12 12:52:37;;;;;;;;;;;21.10;52.80;;;;;;5018913;28;19917;-70
2021/06/12 12:55:02;;;;;;;;;;;21.50;51.40;;;;;;5021896;28;19917;-69
2021/06/12 12:57:47;;;;;;;;;;;22.20;49.90;;;;;;5018421;28;20322;-70
2021/06/12 13:00:23;;;;;;;;;;;22.30;49.10;;;;;;5016641;28;20011;-70
2021/06/12 13:02:53;;;;;;;;;;;22.10;48.10;;;;;;5028816;28;19928;-69
2021/06/12 13:05:19;;;;;;;;;;;21.80;49.50;;;;;;5021416;28;19917;-70
2021/06/12 13:07:54;;;;;;;;;;;21.00;50.90;;;;;;5019081;28;19970;-69
2021/06/12 13:10:27;;;;;;;;;;;21.00;50.50;;;;;;5017686;28;19921;-69
2021/06/12 13:12:56;;;;;;;;;;;20.50;52.30;;;;;;5015374;28;19990;-70
2021/06/12 13:15:22;;;;;;;;;;;21.00;51.60;;;;;;5021256;28;19968;-68
2021/06/12 13:17:47;;;;;;;;;;;21.50;48.00;;;;;;5025214;28;20332;-69
2021/06/12 13:20:19;;;;;;;;;;;21.40;50.00;;;;;;5017991;28;19927;-69
2021/06/12 13:22:46;;;;;;;;;;;21.00;50.10;;;;;;5011302;28;19928;-68
2021/06/12 13:25:12;;;;;;;;;;;20.50;50.70;;;;;;5019439;28;19990;-69
2021/06/12 13:27:41;;;;;;;;;;;20.90;50.60;;;;;;5018706;28;19921;-69
2021/06/12 13:30:08;;;;;;;;;;;21.00;51.80;;;;;;5020861;28;19963;-69
2021/06/12 13:32:34;;;;;;;;;;;21.10;50.50;;;;;;5017187;28;19914;-70
2021/06/12 13:35:00;;;;;;;;;;;22.50;48.90;;;;;;5019258;28;20015;-70
2021/06/12 13:37:25;;;;;;;;;;;22.60;47.80;;;;;;5018369;28;19983;-68
2021/06/12 13:39:53;;;;;;;;;;;22.50;49.30;;;;;;5020214;28;19929;-68
2021/06/12 13:42:20;;;;;;;;;;;21.60;49.40;;;;;;5018088;28;19970;-69
2021/06/12 13:45:12;;;;;;;;;;;21.20;49.10;;;;;;5019435;28;19961;-69
2021/06/12 13:47:38;;;;;;;;;;;21.20;48.60;;;;;;5020847;28;19917;-68
2021/06/12 13:50:07;;;;;;;;;;;21.50;48.30;;;;;;5023589;28;19932;-69
2021/06/12 13:52:33;;;;;;;;;;;21.60;48.00;;;;;;5019756;28;20047;-69
2021/06/12 13:55:00;;;;;;;;;;;21.80;46.20;;;;;;5023344;28;20375;-69
2021/06/12 13:57:25;;;;;;;;;;;20.90;48.70;;;;;;5022376;28;19921;-69
2021/06/12 13:59:51;;;;;;;;;;;20.20;48.30;;;;;;5021219;28;19918;-69
2021/06/12 14:02:16;;;;;;;;;;;19.80;49.30;;;;;;5017737;28;20031;-68
2021/06/12 14:04:42;;;;;;;;;;;21.20;47.20;;;;;;5022550;28;20452;-67
2021/06/12 14:07:07;;;;;;;;;;;21.20;45.20;;;;;;5023428;28;20411;-68
2021/06/12 14:09:33;;;;;;;;;;;21.30;43.90;;;;;;5022617;28;19953;-68
2021/06/12 14:11:59;;;;;;;;;;;20.30;46.00;;;;;;5018613;28;19959;-68
2021/06/12 14:14:25;;;;;;;;;;;19.90;46.10;;;;;;5021148;28;19999;-69
2021/06/12 14:16:51;;;;;;;;;;;19.80;45.90;;;;;;5025775;28;20028;-68